Time;durP1;ratioP1;P1;durP2;ratioP2;P2;SDS_P1;SDS_P2;PMS_P1;PMS_P2;Temp;Humidity;BMP_temperature;BMP_pressure;BME280_temperature;BME280_humidity;BME280_pressure;Samples;Min_cycle;Max_cycle;Signal;HPM_P1;HPM_P2
2022/01/18 00:01:50;;;;;;;27.00;13.60;;;;;;;2.56;100.00;100606.28;4972301;28;20190;-62
2022/01/18 00:04:17;;;;;;;25.27;12.43;;;;;;;2.56;100.00;100612.31;4966745;28;20221;-62
2022/01/18 00:06:48;;;;;;;24.70;12.60;;;;;;;2.56;100.00;100606.28;4971759;28;20676;-62
2022/01/18 00:09:18;;;;;;;25.83;13.47;;;;;;;2.58;100.00;100604.50;4972449;28;20209;-61
2022/01/18 00:11:49;;;;;;;25.97;13.03;;;;;;;2.57;100.00;100607.97;4979953;28;20182;-62
2022/01/18 00:14:25;;;;;;;24.77;12.37;;;;;;;2.55;100.00;100608.03;4991478;28;20727;-62
2022/01/18 00:17:05;;;;;;;23.77;12.07;;;;;;;2.52;100.00;100615.88;4991844;28;20268;-63
2022/01/18 00:19:39;;;;;;;27.80;13.20;;;;;;;2.53;100.00;100607.25;4991901;28;20776;-63
2022/01/18 00:22:10;;;;;;;22.57;11.77;;;;;;;2.56;100.00;100611.44;4980244;28;20651;-66
2022/01/18 00:24:39;;;;;;;25.50;13.20;;;;;;;2.59;100.00;100607.06;4971909;28;20210;-63
2022/01/18 00:27:11;;;;;;;25.40;12.27;;;;;;;2.61;100.00;100612.16;4979420;28;20276;-62
2022/01/18 00:29:47;;;;;;;25.10;12.37;;;;;;;2.61;100.00;100615.56;4981532;28;20223;-63
2022/01/18 00:32:22;;;;;;;22.47;11.80;;;;;;;2.62;100.00;100609.53;4982372;28;20269;-63
2022/01/18 00:34:52;;;;;;;25.25;13.80;;;;;;;2.61;100.00;100615.56;4982942;28;20428;-63
2022/01/18 00:37:34;;;;;;;21.60;12.00;;;;;;;2.57;100.00;100616.56;4984200;28;20189;-61
2022/01/18 00:40:02;;;;;;;19.30;11.40;;;;;;;2.57;100.00;100606.25;4977648;28;20193;-62
2022/01/18 00:42:29;;;;;;;24.70;12.17;;;;;;;2.59;100.00;100611.34;4983015;28;20225;-62
2022/01/18 00:44:57;;;;;;;24.10;11.70;;;;;;;2.57;100.00;100616.56;4983260;28;20592;-61
2022/01/18 00:47:24;;;;;;;21.67;11.37;;;;;;;2.58;100.00;100604.50;4982447;28;20202;-62
2022/01/18 00:49:58;;;;;;;21.10;11.93;;;;;;;2.62;100.00;100608.66;4983795;28;20239;-62
2022/01/18 00:52:27;;;;;;;24.17;12.10;;;;;;;2.55;100.00;100618.34;4983713;28;20226;-61
2022/01/18 00:54:54;;;;;;;20.57;11.33;;;;;;;2.64;100.00;100615.47;4981174;28;20190;-63
2022/01/18 00:57:21;;;;;;;21.47;11.83;;;;;;;2.61;100.00;100613.00;4984155;28;20194;-62
2022/01/18 00:59:48;;;;;;;23.30;12.17;;;;;;;2.63;100.00;100615.50;4984087;28;20197;-62
2022/01/18 01:02:17;;;;;;;22.60;11.90;;;;;;;2.63;100.00;100610.34;4981668;28;20190;-63
2022/01/18 01:04:47;;;;;;;24.10;12.47;;;;;;;2.65;100.00;100622.28;4984051;28;20218;-63
2022/01/18 01:07:16;;;;;;;27.03;13.97;;;;;;;2.66;100.00;100623.16;4981569;28;20190;-61
2022/01/18 01:09:43;;;;;;;23.13;12.33;;;;;;;2.66;100.00;100608.50;4981824;28;20185;-62
2022/01/18 01:12:13;;;;;;;28.83;13.13;;;;;;;2.66;100.00;100621.41;4982483;28;20272;-62
2022/01/18 01:14:40;;;;;;;17.47;9.47;;;;;;;2.56;100.00;100620.03;4982733;28;20185;-62
2022/01/18 01:17:20;;;;;;;17.30;9.50;;;;;;;2.57;100.00;100624.31;4983655;28;20277;-61
2022/01/18 01:34:09;;;;;;;20.67;10.30;;;;;;;2.60;100.00;100610.47;4977279;28;20246;-63
2022/01/18 01:36:59;;;;;;;20.47;10.13;;;;;;;2.59;100.00;100625.09;4985780;28;20202;-62
2022/01/18 01:42:28;;;;;;;16.83;9.13;;;;;;;2.59;100.00;100625.09;4984658;28;20588;-63
2022/01/18 01:44:56;;;;;;;19.97;9.73;;;;;;;2.63;100.00;100623.25;4987202;28;20684;-63
2022/01/18 01:47:34;;;;;;;21.07;10.23;;;;;;;2.65;100.00;100619.72;4986451;28;20696;-62
2022/01/18 01:50:01;;;;;;;17.50;9.57;;;;;;;2.65;100.00;100619.72;4982752;28;20589;-62
2022/01/18 01:52:29;;;;;;;19.67;10.07;;;;;;;2.62;100.00;100622.44;4979670;28;20193;-63
2022/01/18 01:54:57;;;;;;;15.87;8.93;;;;;;;2.68;100.00;100621.38;4985924;28;20304;-63
2022/01/18 01:57:24;;;;;;;19.93;9.67;;;;;;;2.69;100.00;100617.91;4986448;28;20744;-62
2022/01/18 01:59:51;;;;;;;19.37;9.10;;;;;;;2.66;100.00;100633.47;4986558;28;20209;-63
2022/01/18 02:02:18;;;;;;;17.87;9.80;;;;;;;2.67;100.00;100637.72;4986995;28;20182;-62
2022/01/18 02:04:45;;;;;;;20.83;9.70;;;;;;;2.62;100.00;100637.91;4985864;28;20701;-62
2022/01/18 02:07:12;;;;;;;19.97;10.20;;;;;;;2.62;100.00;100627.59;4987462;28;20569;-62
2022/01/18 02:09:41;;;;;;;19.50;10.63;;;;;;;2.62;100.00;100619.84;4984149;28;20185;-62
2022/01/18 02:12:10;;;;;;;19.27;10.10;;;;;;;2.66;100.00;100625.72;4983620;28;20205;-62
2022/01/18 02:14:39;;;;;;;18.97;10.37;;;;;;;2.65;100.00;100629.19;4978522;28;20198;-62
2022/01/18 02:22:37;;;;;;;16.63;8.80;;;;;;;2.72;100.00;100598.88;4981888;28;20189;-63
2022/01/18 02:25:04;;;;;;;15.73;9.47;;;;;;;2.74;100.00;100586.78;4982432;28;20241;-62
2022/01/18 02:27:31;;;;;;;16.40;8.67;;;;;;;2.78;100.00;100598.69;4981324;28;20204;-63
2022/01/18 02:29:58;;;;;;;17.37;9.60;;;;;;;2.73;100.00;100593.69;4981069;28;20186;-63
2022/01/18 02:32:25;;;;;;;17.70;9.17;;;;;;;2.74;100.00;100597.94;4982742;28;20205;-63
2022/01/18 02:34:52;;;;;;;21.00;10.03;;;;;;;2.74;100.00;100603.09;4980218;28;20214;-63
2022/01/18 02:37:18;;;;;;;19.93;10.40;;;;;;;2.76;100.00;100611.63;4981020;28;20193;-63
2022/01/18 02:39:47;;;;;;;21.23;11.00;;;;;;;2.77;100.00;100605.59;4982472;28;20190;-63
2022/01/18 02:42:15;;;;;;;20.67;10.00;;;;;;;2.77;100.00;100608.16;4981327;28;20191;-63
2022/01/18 02:44:43;;;;;;;21.20;11.13;;;;;;;2.79;100.00;100608.97;4980085;28;20293;-63
2022/01/18 02:47:10;;;;;;;17.83;9.80;;;;;;;2.80;100.00;100605.47;4981941;28;20185;-64
2022/01/18 02:49:37;;;;;;;19.17;9.70;;;;;;;2.79;100.00;100608.97;4981677;28;20225;-64
2022/01/18 02:52:05;;;;;;;19.13;9.87;;;;;;;2.82;100.00;100605.41;4980039;28;20450;-64
2022/01/18 02:54:32;;;;;;;18.43;9.47;;;;;;;2.76;100.00;100606.47;4981201;28;20190;-63
2022/01/18 02:57:03;;;;;;;14.07;8.57;;;;;;;2.79;100.00;100600.34;4981853;28;20197;-63
2022/01/18 02:59:35;;;;;;;16.30;9.17;;;;;;;2.75;100.00;100599.63;4983737;28;20554;-64
2022/01/18 03:05:00;;;;;;;18.75;11.55;;;;;;;2.76;100.00;100593.59;4981392;28;20442;-63
2022/01/18 03:07:27;;;;;;;17.90;9.93;;;;;;;2.77;100.00;100591.84;4981973;28;20261;-64
2022/01/18 03:09:54;;;;;;;19.37;9.87;;;;;;;2.76;100.00;100595.31;4986137;28;20189;-59
2022/01/18 03:12:22;;;;;;;19.87;9.13;;;;;;;2.79;100.00;100592.63;4983484;28;20190;-62
2022/01/18 03:14:49;;;;;;;17.93;9.13;;;;;;;2.79;100.00;100592.63;4980391;28;20198;-62
2022/01/18 03:17:16;;;;;;;17.10;9.47;;;;;;;2.80;100.00;100586.56;4980583;28;20270;-61
2022/01/18 03:19:43;;;;;;;19.60;9.90;;;;;;;2.82;100.00;100581.38;4990532;28;20569;-62
2022/01/18 03:22:10;;;;;;;18.00;9.57;;;;;;;2.77;100.00;100582.38;4991516;28;20195;-62
2022/01/18 03:30:09;;;;;;;17.67;8.90;;;;;;;2.78;100.00;100583.19;4991513;28;20216;-63
2022/01/18 03:32:37;;;;;;;15.43;8.70;;;;;;;2.79;100.00;100585.75;4991725;28;20199;-62
2022/01/18 03:35:05;;;;;;;18.98;11.23;;;;;;;2.84;100.00;100592.47;4990629;28;20431;-62
2022/01/18 03:37:32;;;;;;;16.27;9.10;;;;;;;2.80;100.00;100586.56;4977544;28;20194;-62
2022/01/18 03:39:59;;;;;;;19.73;10.27;;;;;;;2.82;100.00;100584.78;4970832;28;20288;-62
2022/01/18 03:42:37;;;;;;;16.93;8.63;;;;;;;2.83;100.00;100593.38;4972986;28;20194;-62
2022/01/18 03:45:07;;;;;;;22.07;9.77;;;;;;;2.78;100.00;100586.63;4972397;28;20268;-62
2022/01/18 03:47:35;;;;;;;19.43;9.00;;;;;;;2.78;100.00;100583.19;4971351;28;20248;-62
2022/01/18 03:50:04;;;;;;;16.60;8.70;;;;;;;2.80;100.00;100587.44;4970684;28;20193;-63
2022/01/18 03:52:30;;;;;;;17.57;9.30;;;;;;;2.81;100.00;100583.09;4971717;28;20202;-63
2022/01/18 03:54:57;;;;;;;18.23;9.00;;;;;;;2.82;100.00;100591.69;4975539;28;20608;-63
2022/01/18 03:57:24;;;;;;;15.60;8.73;;;;;;;2.84;100.00;100588.16;4972476;28;20201;-63
2022/01/18 03:59:52;;;;;;;16.00;8.63;;;;;;;2.85;100.00;100594.16;4972165;28;20194;-63
2022/01/18 04:02:19;;;;;;;15.30;8.57;;;;;;;2.87;100.00;100588.03;4973063;28;20197;-63
2022/01/18 04:04:46;;;;;;;20.37;10.37;;;;;;;2.84;100.00;100587.31;4991064;28;20217;-62
2022/01/18 04:07:13;;;;;;;21.67;10.27;;;;;;;2.84;100.00;100585.56;4991585;28;20204;-61
2022/01/18 04:09:41;;;;;;;20.20;10.07;;;;;;;2.83;100.00;100588.22;4990403;28;20593;-62
2022/01/18 04:12:08;;;;;;;19.50;9.83;;;;;;;2.83;100.00;100596.78;4991516;28;20196;-62
2022/01/18 04:14:35;;;;;;;19.37;9.40;;;;;;;2.82;100.00;100591.69;4991606;28;20228;-62
2022/01/18 04:17:11;;;;;;;18.67;10.37;;;;;;;2.82;100.00;100591.69;4991532;28;20189;-63
2022/01/18 04:28:02;;;;;;;17.83;9.23;;;;;;;2.87;100.00;100588.03;4972231;28;20205;-62
2022/01/18 04:30:28;;;;;;;19.97;9.37;;;;;;;2.87;100.00;100588.03;4979843;28;20672;-62
2022/01/18 04:32:57;;;;;;;19.40;9.80;;;;;;;2.83;100.00;100583.88;4981031;28;20833;-62
2022/01/18 04:35:24;;;;;;;19.83;10.10;;;;;;;2.85;100.00;100594.16;4990712;28;20184;-62
2022/01/18 04:37:51;;;;;;;19.57;10.00;;;;;;;2.84;100.00;100588.16;4987603;28;20218;-62
2022/01/18 04:40:19;;;;;;;22.53;10.93;;;;;;;2.84;100.00;100592.47;4965832;28;20191;-62
2022/01/18 04:48:30;;;;;;;18.93;9.47;;;;;;;2.84;100.00;100590.72;4971316;28;20214;-62
2022/01/18 04:51:00;;;;;;;16.43;8.83;;;;;;;2.86;100.00;100595.84;4971441;28;20188;-62
2022/01/18 04:53:30;;;;;;;15.17;7.77;;;;;;;2.86;100.00;100596.69;4971154;28;20194;-62
2022/01/18 04:55:59;;;;;;;18.70;9.60;;;;;;;2.87;100.00;100602.69;4971097;28;20213;-62
2022/01/18 04:58:27;;;;;;;18.17;9.07;;;;;;;2.84;100.00;100606.22;4973235;28;20217;-62
2022/01/18 05:00:58;;;;;;;16.60;8.60;;;;;;;2.86;100.00;100603.59;4974859;28;20721;-62
2022/01/18 05:03:26;;;;;;;16.30;8.37;;;;;;;2.83;100.00;100599.34;4975723;28;20224;-63
2022/01/18 05:05:56;;;;;;;17.83;9.13;;;;;;;2.91;100.00;100609.44;4981777;28;20213;-63
2022/01/18 05:08:23;;;;;;;17.30;8.50;;;;;;;2.84;100.00;100613.13;4992962;28;20688;-62
2022/01/18 05:10:54;;;;;;;16.40;8.90;;;;;;;2.85;100.00;100617.38;4994632;28;20189;-61
2022/01/18 05:13:50;;;;;;;18.00;8.73;;;;;;;2.89;100.00;100608.66;4991106;28;20248;-63
2022/01/18 05:16:42;;;;;;;14.70;7.67;;;;;;;2.88;100.00;100617.28;4975402;28;20204;-62
2022/01/18 05:19:18;;;;;;;18.27;9.07;;;;;;;2.86;100.00;100616.50;4975335;28;20213;-63
2022/01/18 05:24:30;;;;;;;16.37;8.47;;;;;;;2.77;100.00;100612.47;4974451;28;20682;-63
2022/01/18 05:26:58;;;;;;;17.73;9.13;;;;;;;2.77;100.00;100607.31;4975112;28;20701;-63
2022/01/18 05:29:26;;;;;;;17.93;8.47;;;;;;;2.77;100.00;100617.63;4974510;28;20206;-61
2022/01/18 05:31:53;;;;;;;16.60;9.53;;;;;;;2.78;100.00;100612.44;4969170;28;20663;-61
2022/01/18 05:34:21;;;;;;;15.77;8.03;;;;;;;2.79;100.00;100619.28;4974113;28;20190;-62
2022/01/18 05:36:49;;;;;;;15.60;7.50;;;;;;;2.77;100.00;100620.19;4974802;28;20237;-62
2022/01/18 05:39:16;;;;;;;18.70;8.00;;;;;;;2.71;100.00;100618.69;4974858;28;20217;-62
2022/01/18 05:41:44;;;;;;;16.77;8.67;;;;;;;2.70;100.00;100609.25;4974603;28;20197;-62
2022/01/18 05:44:12;;;;;;;19.97;9.63;;;;;;;2.72;100.00;100617.78;4974105;28;20372;-62
2022/01/18 05:46:39;;;;;;;15.17;8.30;;;;;;;2.72;100.00;100619.50;4974829;28;20201;-62
2022/01/18 05:49:06;;;;;;;16.97;8.87;;;;;;;2.66;100.00;100615.41;5017360;22;20244;-62
2022/01/18 05:51:36;;;;;;;17.33;9.40;;;;;;;2.67;100.00;100614.53;4981604;28;20391;-62
2022/01/18 05:54:05;;;;;;;22.37;11.63;;;;;;;2.65;100.00;100611.97;4979223;28;20189;-62
2022/01/18 05:56:32;;;;;;;22.07;11.23;;;;;;;2.68;100.00;100615.34;4978343;28;20213;-62
2022/01/18 05:59:02;;;;;;;19.07;9.83;;;;;;;2.68;100.00;100608.47;4973857;28;20210;-62
2022/01/18 06:01:33;;;;;;;16.90;9.00;;;;;;;2.70;100.00;100613.56;4972863;28;20190;-62
2022/01/18 06:04:17;;;;;;;18.23;8.63;;;;;;;2.68;100.00;100612.78;4973874;28;20609;-62
2022/01/18 06:06:53;;;;;;;20.00;8.83;;;;;;;2.68;100.00;100617.94;4974233;28;20586;-62
2022/01/18 06:09:21;;;;;;;17.50;8.80;;;;;;;2.65;100.00;100606.81;4973519;28;20576;-62
2022/01/18 06:11:48;;;;;;;23.80;13.07;;;;;;;2.71;100.00;100602.34;4974073;28;20192;-62
2022/01/18 06:14:15;;;;;;;20.43;11.53;;;;;;;2.70;100.00;100600.66;4973833;28;20189;-61
2022/01/18 06:16:43;;;;;;;20.07;9.93;;;;;;;2.77;100.00;100595.28;4979965;28;20653;-61
2022/01/18 06:19:10;;;;;;;18.03;9.30;;;;;;;2.77;100.00;100594.41;4977801;28;20217;-61
2022/01/18 06:21:36;;;;;;;19.00;9.60;;;;;;;2.75;100.00;100601.34;4973649;28;20190;-61
2022/01/18 06:24:07;;;;;;;19.93;9.30;;;;;;;2.73;100.00;100603.16;4973528;28;20211;-61
2022/01/18 06:26:34;;;;;;;18.27;9.23;;;;;;;2.74;100.00;100604.81;4974220;28;20186;-62
2022/01/18 06:29:02;;;;;;;18.20;8.83;;;;;;;2.78;100.00;100607.28;4975784;28;20697;-62
2022/01/18 06:31:29;;;;;;;17.30;8.13;;;;;;;2.73;100.00;100606.59;4980946;28;20191;-61
2022/01/18 06:33:56;;;;;;;18.20;8.67;;;;;;;2.73;100.00;100621.19;4973346;28;20191;-61
2022/01/18 06:36:23;;;;;;;30.43;14.00;;;;;;;2.71;100.00;100618.69;4974631;28;20241;-62
2022/01/18 06:38:50;;;;;;;37.80;16.23;;;;;;;2.71;100.00;100617.81;4993465;28;20704;-62
2022/01/18 06:41:18;;;;;;;23.83;13.17;;;;;;;2.69;100.00;100628.22;4992998;28;20196;-61
2022/01/18 06:43:45;;;;;;;30.00;14.13;;;;;;;2.78;100.00;100635.63;4981294;28;20194;-62
2022/01/18 06:46:12;;;;;;;23.93;13.40;;;;;;;2.73;100.00;100636.66;4973580;28;20206;-62
2022/01/18 06:48:39;;;;;;;29.60;14.40;;;;;;;2.66;100.00;100626.56;4983271;28;20221;-62
2022/01/18 06:51:06;;;;;;;30.53;15.13;;;;;;;2.68;100.00;100643.72;4984858;28;20725;-63
2022/01/18 06:53:35;;;;;;;29.43;15.40;;;;;;;2.71;100.00;100634.16;4981832;28;20190;-63
2022/01/18 06:56:04;;;;;;;28.07;13.83;;;;;;;2.75;100.00;100643.47;4983606;28;20185;-62
2022/01/18 06:58:32;;;;;;;32.67;16.73;;;;;;;2.74;100.00;100641.78;4980237;28;20209;-63
2022/01/18 07:00:59;;;;;;;36.70;17.20;;;;;;;2.74;100.00;100641.78;4974833;28;20279;-63
2022/01/18 07:03:26;;;;;;;45.67;23.37;;;;;;;2.70;100.00;100644.50;4973688;28;20185;-63
2022/01/18 07:05:53;;;;;;;54.10;29.13;;;;;;;2.71;100.00;100646.19;4972147;28;20221;-62
2022/01/18 07:08:19;;;;;;;53.77;27.33;;;;;;;2.74;100.00;100659.84;4972483;28;20309;-62
2022/01/18 07:10:46;;;;;;;45.50;24.87;;;;;;;2.75;100.00;100652.94;4972927;28;20277;-63
2022/01/18 07:13:14;;;;;;;45.00;24.27;;;;;;;2.75;100.00;100651.22;4982759;28;20186;-63
2022/01/18 07:15:42;;;;;;;44.90;23.30;;;;;;;2.74;100.00;100659.00;4992422;28;20195;-63
2022/01/18 07:18:10;;;;;;;45.43;24.17;;;;;;;2.77;100.00;100658.88;4985037;28;20241;-63
2022/01/18 07:20:38;;;;;;;43.47;23.33;;;;;;;2.78;100.00;100658.00;4976589;28;20578;-64
2022/01/18 07:23:07;;;;;;;41.93;22.73;;;;;;;2.76;100.00;100654.63;4967197;28;20734;-63
2022/01/18 07:25:34;;;;;;;45.60;23.27;;;;;;;2.73;100.00;100652.13;4976165;28;20294;-63
2022/01/18 07:28:00;;;;;;;40.80;21.27;;;;;;;2.62;100.00;100660.25;4979618;28;20213;-63
2022/01/18 07:30:27;;;;;;;40.17;21.07;;;;;;;2.58;100.00;100654.34;4986660;28;20193;-62
2022/01/18 07:32:55;;;;;;;41.53;22.70;;;;;;;2.58;100.00;100656.06;4974360;28;20204;-65
2022/01/18 07:35:22;;;;;;;41.17;21.23;;;;;;;2.59;100.00;100665.50;4972313;28;20185;-64
2022/01/18 07:37:49;;;;;;;41.93;20.83;;;;;;;2.62;100.00;100674.00;4972801;28;20188;-64
2022/01/18 07:40:16;;;;;;;37.77;19.73;;;;;;;2.63;100.00;100672.25;4971408;28;20214;-64
2022/01/18 07:42:42;;;;;;;34.53;18.27;;;;;;;2.61;100.00;100672.31;4977422;28;20236;-61
2022/01/18 07:45:11;;;;;;;33.43;18.07;;;;;;;2.56;100.00;100669.03;4984489;28;20220;-61
2022/01/18 07:47:38;;;;;;;28.40;18.25;;;;;;;2.60;100.00;100665.47;4980649;28;20926;-62
2022/01/18 07:50:07;;;;;;;24.10;12.40;;;;;;;2.52;100.00;100682.91;4982038;28;20196;-63
2022/01/18 07:52:35;;;;;;;15.80;9.20;;;;;;;2.51;100.00;100676.06;4976421;28;20263;-63
2022/01/18 07:55:02;;;;;;;14.77;9.10;;;;;;;2.46;100.00;100681.34;4976999;28;20226;-63
2022/01/18 07:57:29;;;;;;;17.63;9.63;;;;;;;2.45;100.00;100678.84;4978252;28;20193;-62
2022/01/18 07:59:56;;;;;;;14.60;9.00;;;;;;;2.47;100.00;100680.47;4977385;28;20218;-63
2022/01/18 08:02:23;;;;;;;20.00;8.70;;;;;;;2.54;100.00;100690.56;4971288;28;20666;-62
2022/01/18 08:04:50;;;;;;;12.10;7.10;;;;;;;2.61;100.00;100685.19;4971538;28;20669;-62
2022/01/18 08:07:18;;;;;;;15.03;7.53;;;;;;;2.69;100.00;100690.09;4971058;28;20662;-63
2022/01/18 08:09:45;;;;;;;16.67;8.03;;;;;;;2.77;100.00;100687.25;4979686;28;20288;-61
2022/01/18 08:12:12;;;;;;;28.37;14.30;;;;;;;2.85;100.00;100679.28;4984614;28;20200;-61
2022/01/18 08:14:42;;;;;;;32.97;15.70;;;;;;;2.87;100.00;100680.09;4944996;28;20193;-62
2022/01/18 08:17:10;;;;;;;25.97;12.70;;;;;;;2.98;100.00;100683.16;4980288;28;20182;-62
2022/01/18 08:19:37;;;;;;;22.03;12.03;;;;;;;3.02;100.00;100673.56;4979991;28;20308;-63
2022/01/18 08:22:04;;;;;;;24.67;12.43;;;;;;;3.09;100.00;100682.78;4974228;28;20202;-63
2022/01/18 08:24:33;;;;;;;27.93;14.73;;;;;;;3.13;100.00;100676.63;4978941;28;20199;-62
2022/01/18 08:27:00;;;;;;;33.97;16.23;;;;;;;3.22;100.00;100684.03;4985666;28;20322;-62
2022/01/18 08:29:26;;;;;;;33.43;15.97;;;;;;;3.29;100.00;100681.25;4985570;28;20265;-62
2022/01/18 08:31:53;;;;;;;29.53;15.50;;;;;;;3.34;100.00;100675.03;4982131;28;20284;-63
2022/01/18 08:34:21;;;;;;;32.33;16.77;;;;;;;3.45;100.00;100672.06;4984857;28;20188;-62
2022/01/18 08:36:48;;;;;;;31.73;17.87;;;;;;;3.49;100.00;100680.53;4979624;28;20178;-63
2022/01/18 08:39:14;;;;;;;31.67;15.90;;;;;;;3.55;100.00;100672.56;4986473;28;20217;-63
2022/01/18 08:41:43;;;;;;;24.17;13.10;;;;;;;3.61;100.00;100677.53;4991229;28;20181;-64
2022/01/18 08:44:09;;;;;;;27.57;12.20;;;;;;;3.66;100.00;100675.63;4991014;28;20181;-63
2022/01/18 08:46:36;;;;;;;23.73;12.40;;;;;;;3.78;100.00;100676.91;4984372;28;20214;-63
2022/01/18 08:49:05;;;;;;;22.80;13.30;;;;;;;3.86;100.00;100668.03;4971966;28;20224;-63
2022/01/18 08:51:32;;;;;;;20.37;11.37;;;;;;;3.92;100.00;100667.78;4971851;28;20194;-64
2022/01/18 08:54:00;;;;;;;27.60;16.83;;;;;;;3.95;100.00;100672.84;4971877;28;20207;-61
2022/01/18 08:56:26;;;;;;;24.17;14.70;;;;;;;4.01;100.00;100664.03;4971788;28;20586;-62
2022/01/18 08:58:54;;;;;;;19.90;11.50;;;;;;;4.04;100.00;100669.91;4970180;28;20228;-63
2022/01/18 09:01:21;;;;;;;21.80;10.63;;;;;;;4.12;100.00;100667.06;4971477;28;20194;-64
2022/01/18 09:03:49;;;;;;;18.00;11.33;;;;;;;4.22;100.00;100668.41;4971393;28;20273;-63
2022/01/18 09:06:18;;;;;;;16.87;9.83;;;;;;;4.29;100.00;100668.97;4971703;28;20213;-63
2022/01/18 09:08:54;;;;;;;15.70;9.37;;;;;;;4.35;100.00;100671.31;4971821;28;20480;-63
2022/01/18 09:11:23;;;;;;;15.63;9.50;;;;;;;4.43;100.00;100669.28;4969346;28;20194;-63
2022/01/18 09:13:50;;;;;;;15.90;8.40;;;;;;;4.45;100.00;100668.38;4970936;28;20212;-62
2022/01/18 09:16:19;;;;;;;16.07;8.77;;;;;;;4.47;100.00;100662.22;4971288;28;20195;-64
2022/01/18 09:18:46;;;;;;;17.23;11.03;;;;;;;4.50;99.71;100658.69;4980523;28;20209;-64
2022/01/18 09:21:13;;;;;;;16.93;10.30;;;;;;;4.47;98.85;100667.41;4980779;28;20201;-63
2022/01/18 09:23:40;;;;;;;19.53;11.23;;;;;;;4.46;99.51;100667.47;4990530;28;20204;-63
2022/01/18 09:26:07;;;;;;;21.87;12.97;;;;;;;4.47;99.14;100666.56;4971906;28;20221;-63
2022/01/18 09:28:34;;;;;;;19.07;12.10;;;;;;;4.52;98.55;100672.41;4971398;28;20563;-64
2022/01/18 09:31:01;;;;;;;10.17;6.00;;;;;;;4.60;97.14;100682.44;4985410;28;20216;-64
2022/01/18 09:33:29;;;;;;;13.27;5.73;;;;;;;4.57;96.95;100675.66;4990932;28;20562;-64
2022/01/18 09:35:56;;;;;;;16.13;8.27;;;;;;;4.71;96.96;100682.84;4990695;28;20193;-64
2022/01/18 09:38:23;;;;;;;12.47;7.53;;;;;;;4.81;96.90;100673.81;4990678;28;20201;-63
2022/01/18 09:40:50;;;;;;;11.10;6.73;;;;;;;4.90;96.89;100682.91;4981896;28;20202;-63
2022/01/18 09:43:17;;;;;;;10.47;5.83;;;;;;;5.02;95.61;100685.00;4971373;28;20233;-64
2022/01/18 09:45:46;;;;;;;11.60;5.97;;;;;;;5.09;93.66;100685.59;4973447;28;20217;-62
2022/01/18 09:48:15;;;;;;;16.37;7.67;;;;;;;5.03;91.41;100684.09;4973286;28;20253;-63
2022/01/18 09:50:45;;;;;;;9.90;5.70;;;;;;;5.11;92.04;100691.56;4974619;28;20190;-63
2022/01/18 09:53:12;;;;;;;10.80;5.63;;;;;;;5.21;91.19;100698.94;4974667;28;20193;-63
2022/01/18 09:55:41;;;;;;;16.93;8.37;;;;;;;5.14;90.51;100695.75;4974276;28;20186;-63
2022/01/18 09:58:08;;;;;;;12.20;6.97;;;;;;;5.14;91.16;100703.50;4972205;28;20222;-63
2022/01/18 10:00:39;;;;;;;14.93;5.80;;;;;;;5.11;90.62;100693.28;4973915;28;20197;-63
2022/01/18 10:03:10;;;;;;;14.00;6.03;;;;;;;5.11;91.40;100696.72;4972926;28;20210;-63
2022/01/18 10:05:38;;;;;;;14.13;5.77;;;;;;;5.10;90.69;100695.06;4993214;28;20292;-64
2022/01/18 10:08:10;;;;;;;15.47;6.77;;;;;;;4.93;92.08;100697.50;4993681;28;20303;-64
2022/01/18 10:10:41;;;;;;;11.33;5.23;;;;;;;4.73;91.68;100691.38;4992120;28;20251;-63
2022/01/18 10:13:09;;;;;;;13.93;6.27;;;;;;;4.88;92.02;100688.19;4994018;28;20190;-63
2022/01/18 10:15:36;;;;;;;14.27;6.87;;;;;;;4.86;91.60;100684.81;4991056;28;20181;-64
2022/01/18 10:18:05;;;;;;;16.50;6.67;;;;;;;4.86;91.59;100687.41;4974034;28;20208;-63
2022/01/18 10:20:32;;;;;;;11.60;6.10;;;;;;;4.73;92.78;100684.47;4973955;28;20179;-63
2022/01/18 10:23:00;;;;;;;11.70;6.63;;;;;;;4.74;93.55;100682.72;4973869;28;20190;-63
2022/01/18 10:25:34;;;;;;;11.40;6.37;;;;;;;4.80;93.30;100679.88;4969537;28;20220;-63
2022/01/18 10:28:01;;;;;;;14.03;6.77;;;;;;;4.90;93.09;100674.34;4970159;28;20272;-64
2022/01/18 10:30:43;;;;;;;12.37;6.43;;;;;;;4.95;93.12;100670.63;4972833;28;20240;-63
2022/01/18 10:33:14;;;;;;;12.23;6.80;;;;;;;4.92;91.42;100669.94;4973981;28;20198;-63
2022/01/18 10:36:11;;;;;;;11.53;6.20;;;;;;;5.08;90.59;100677.88;4973329;28;20209;-63
2022/01/18 10:38:39;;;;;;;13.27;6.87;;;;;;;5.05;90.06;100670.25;4979130;28;20221;-64
2022/01/18 10:41:30;;;;;;;10.23;5.73;;;;;;;5.15;88.93;100667.22;4982485;28;20198;-62
2022/01/18 10:44:06;;;;;;;12.97;6.07;;;;;;;5.24;89.26;100672.91;4953825;29;20574;-64
2022/01/18 10:46:35;;;;;;;11.93;6.33;;;;;;;5.35;90.43;100669.84;4962798;28;20220;-63
2022/01/18 10:49:03;;;;;;;10.67;5.87;;;;;;;5.46;88.21;100667.63;4969705;28;20232;-63
2022/01/18 10:51:31;;;;;;;10.73;5.77;;;;;;;5.54;88.44;100664.69;4973262;28;20582;-63
2022/01/18 10:53:59;;;;;;;8.60;4.73;;;;;;;5.57;86.66;100664.56;4973107;28;20201;-64
2022/01/18 10:56:37;;;;;;;11.57;5.13;;;;;;;5.70;86.91;100665.69;4987606;28;20197;-63
2022/01/18 10:59:03;;;;;;;10.50;5.10;;;;;;;5.84;85.05;100659.88;4973224;28;20562;-62
2022/01/18 11:01:31;;;;;;;10.80;4.83;;;;;;;5.89;82.93;100657.09;4971622;28;20555;-63
2022/01/18 11:04:13;;;;;;;10.20;4.90;;;;;;;5.88;84.77;100650.22;4971679;28;20682;-63
2022/01/18 11:06:42;;;;;;;11.50;4.80;;;;;;;5.82;83.80;100656.53;4974697;28;20292;-64
2022/01/18 11:09:13;;;;;;;10.97;5.20;;;;;;;5.83;82.88;100647.00;4992532;28;20210;-64
2022/01/18 11:11:47;;;;;;;9.63;4.47;;;;;;;5.98;82.33;100641.13;4992172;28;20649;-64
2022/01/18 11:14:17;;;;;;;7.73;4.20;;;;;;;5.95;82.01;100628.28;4992024;28;20189;-65
2022/01/18 11:16:45;;;;;;;8.73;4.73;;;;;;;6.08;81.82;100632.94;4992518;28;20700;-63
2022/01/18 11:19:30;;;;;;;12.17;6.33;;;;;;;5.99;81.84;100635.00;4984802;28;20717;-61
2022/01/18 11:21:58;;;;;;;6.73;4.37;;;;;;;6.13;81.35;100636.16;4980461;28;20208;-62
2022/01/18 11:24:28;;;;;;;9.13;5.47;;;;;;;6.01;80.70;100627.19;4975153;28;20198;-62
2022/01/18 11:26:59;;;;;;;11.07;5.20;;;;;;;6.10;81.34;100631.94;4972590;28;20566;-62
2022/01/18 11:29:26;;;;;;;31.87;21.23;;;;;;;6.05;80.50;100621.81;4974444;28;20236;-62
2022/01/18 11:31:55;;;;;;;12.07;4.93;;;;;;;6.22;80.34;100625.34;4991905;28;20197;-62
2022/01/18 11:34:33;;;;;;;9.17;4.33;;;;;;;6.23;80.95;100631.34;4979588;28;20202;-62
2022/01/18 11:37:17;;;;;;;7.30;4.07;;;;;;;6.22;78.45;100627.09;4968890;28;20193;-62
2022/01/18 11:39:45;;;;;;;8.37;3.80;;;;;;;6.15;80.42;100624.78;4972447;28;20217;-62
2022/01/18 11:42:14;;;;;;;7.80;3.83;;;;;;;6.29;80.61;100616.38;4972007;28;20256;-62
2022/01/18 11:44:42;;;;;;;9.77;5.87;;;;;;;6.16;80.49;100623.03;4972016;28;20661;-62
2022/01/18 11:47:09;;;;;;;9.87;5.17;;;;;;;6.09;81.44;100626.84;4972461;28;20206;-63
2022/01/18 11:49:45;;;;;;;7.97;4.37;;;;;;;6.12;81.05;100617.16;4972323;28;20217;-62
2022/01/18 11:52:31;;;;;;;10.60;6.03;;;;;;;6.18;80.89;100614.25;4988506;23;20221;-59
2022/01/18 11:54:59;;;;;;;15.27;9.63;;;;;;;6.08;80.57;100612.19;4975966;28;20213;-59
2022/01/18 11:57:37;;;;;;;6.97;4.23;;;;;;;6.02;80.75;100618.50;4971958;28;20196;-59
2022/01/18 12:00:24;;;;;;;7.77;3.83;;;;;;;6.16;81.18;100605.72;4971676;28;20194;-60
2022/01/18 12:02:55;;;;;;;5.53;3.00;;;;;;;6.41;79.44;100612.31;4972281;28;20621;-60
2022/01/18 12:05:24;;;;;;;8.33;3.77;;;;;;;6.45;77.92;100613.00;4971549;28;20197;-59
2022/01/18 12:07:57;;;;;;;7.40;3.37;;;;;;;6.29;78.97;100606.00;4971298;28;20293;-60
2022/01/18 12:10:44;;;;;;;5.27;2.87;;;;;;;6.30;77.26;100604.22;4971710;28;20256;-60
2022/01/18 12:13:23;;;;;;;8.87;4.43;;;;;;;6.17;78.56;100599.63;4971949;28;20222;-60
2022/01/18 12:15:52;;;;;;;6.87;3.37;;;;;;;6.12;78.74;100587.81;4971697;28;20186;-60